Time;durP1;ratioP1;P1;durP2;ratioP2;P2;SDS_P1;SDS_P2;PMS_P1;PMS_P2;Temp;Humidity;BMP_temperature;BMP_pressure;BME280_temperature;BME280_humidity;BME280_pressure;Samples;Min_cycle;Max_cycle;Signal;HPM_P1;HPM_P2
2023/08/16 00:01:55;;;;;;;9.25;5.57;;;;;;;18.11;100.00;101818.72;5090258;28;20479;-69
2023/08/16 00:04:20;;;;;;;9.85;5.03;;;;;;;18.09;100.00;101820.81;5090273;28;20036;-69
2023/08/16 00:06:46;;;;;;;7.13;4.70;;;;;;;18.03;100.00;101813.59;5088844;28;20129;-69
2023/08/16 00:09:11;;;;;;;13.63;6.00;;;;;;;18.05;100.00;101812.34;5090181;28;20032;-69
2023/08/16 00:11:37;;;;;;;8.57;5.47;;;;;;;18.02;100.00;101814.63;5090040;28;20424;-69
2023/08/16 00:14:02;;;;;;;17.35;6.65;;;;;;;17.96;100.00;101802.84;5090062;28;20028;-69
2023/08/16 00:16:28;;;;;;;9.27;6.00;;;;;;;17.93;100.00;101812.22;5090156;28;20031;-69
2023/08/16 00:18:53;;;;;;;6.65;4.93;;;;;;;17.87;100.00;101807.72;5089968;28;20054;-69
2023/08/16 00:21:19;;;;;;;9.32;5.05;;;;;;;17.88;100.00;101822.84;5088815;28;20103;-69
2023/08/16 00:23:44;;;;;;;8.15;4.82;;;;;;;17.89;100.00;101812.88;5089802;28;20031;-69
2023/08/16 00:26:09;;;;;;;9.68;5.70;;;;;;;17.91;100.00;101813.50;5088493;28;20085;-69
2023/08/16 00:28:35;;;;;;;10.02;5.72;;;;;;;17.95;100.00;101823.63;5089755;28;20059;-69
2023/08/16 00:31:00;;;;;;;8.55;4.50;;;;;;;17.94;100.00;101821.97;5089730;28;20060;-69
2023/08/16 00:33:25;;;;;;;8.20;5.03;;;;;;;18.00;100.00;101830.22;5089672;28;20497;-69
2023/08/16 00:35:52;;;;;;;11.30;5.55;;;;;;;18.01;100.00;101829.19;5089253;28;20054;-69
2023/08/16 00:38:18;;;;;;;9.27;5.10;;;;;;;18.00;100.00;101822.13;5089673;28;20055;-69
2023/08/16 00:40:48;;;;;;;12.82;5.50;;;;;;;18.01;100.00;101824.63;5089570;28;20036;-69
2023/08/16 00:43:14;;;;;;;11.02;5.38;;;;;;;17.99;100.00;101823.19;5089506;28;20093;-69
2023/08/16 00:45:39;;;;;;;10.73;5.78;;;;;;;17.96;100.00;101817.16;5089323;28;20507;-69
2023/08/16 00:48:05;;;;;;;8.82;4.97;;;;;;;17.98;100.00;101819.66;5089371;28;20471;-69
2023/08/16 00:50:30;;;;;;;11.75;5.57;;;;;;;17.85;100.00;101814.38;5089735;28;20059;-69
2023/08/16 00:52:57;;;;;;;9.60;6.07;;;;;;;17.87;100.00;101842.00;5070003;28;20020;-69
2023/08/16 00:55:22;;;;;;;12.30;5.80;;;;;;;17.82;100.00;101842.66;5089930;28;20046;-68
2023/08/16 00:57:48;;;;;;;11.38;6.40;;;;;;;17.76;100.00;101846.16;5089456;28;20028;-69
2023/08/16 01:00:14;;;;;;;8.00;5.30;;;;;;;17.82;100.00;101841.81;5089002;28;20039;-69
2023/08/16 01:02:40;;;;;;;8.82;5.75;;;;;;;17.82;100.00;101837.25;5087836;28;20028;-69
2023/08/16 01:05:06;;;;;;;8.63;5.35;;;;;;;17.85;100.00;101839.50;5089210;28;20657;-69
2023/08/16 01:07:31;;;;;;;13.10;6.25;;;;;;;17.83;100.00;101835.38;5089243;28;20110;-69
2023/08/16 01:09:56;;;;;;;10.27;5.88;;;;;;;17.82;100.00;101841.81;5089073;28;20028;-69
2023/08/16 01:12:34;;;;;;;13.35;5.47;;;;;;;17.86;100.00;101849.22;5089043;28;20051;-69
2023/08/16 01:14:59;;;;;;;8.40;5.32;;;;;;;17.85;100.00;101844.91;5088943;28;20096;-69
2023/08/16 01:17:26;;;;;;;12.63;5.50;;;;;;;17.85;100.00;101844.91;5089050;28;20032;-69
2023/08/16 01:19:56;;;;;;;15.90;7.78;;;;;;;17.87;100.00;101847.38;5089059;28;20036;-69
2023/08/16 01:22:49;;;;;;;11.20;5.90;;;;;;;17.92;100.00;101850.22;5087650;28;20043;-69
2023/08/16 01:25:51;;;;;;;12.32;7.10;;;;;;;17.89;100.00;101856.91;5088760;28;20030;-69
2023/08/16 01:28:18;;;;;;;9.30;5.53;;;;;;;17.89;100.00;101859.63;5088876;28;20066;-69
2023/08/16 01:30:45;;;;;;;9.38;5.82;;;;;;;17.86;100.00;101859.22;5088753;28;20093;-69
2023/08/16 01:33:12;;;;;;;11.45;5.90;;;;;;;17.87;100.00;101869.81;5088833;28;20134;-69
2023/08/16 01:35:38;;;;;;;10.05;5.68;;;;;;;17.89;100.00;101870.41;5088780;28;20023;-69
2023/08/16 01:38:05;;;;;;;12.30;6.35;;;;;;;17.90;100.00;101869.34;5088973;28;20028;-69
2023/08/16 01:40:41;;;;;;;13.05;5.75;;;;;;;17.89;100.00;101867.72;5088890;28;20028;-69
2023/08/16 01:43:10;;;;;;;10.43;5.90;;;;;;;17.86;100.00;101859.22;5088814;28;20032;-69
2023/08/16 01:45:35;;;;;;;13.10;6.57;;;;;;;17.88;100.00;101851.72;5088488;28;20048;-69
2023/08/16 01:48:03;;;;;;;11.50;6.97;;;;;;;17.88;100.00;101867.91;5089899;28;20357;-69
2023/08/16 01:50:28;;;;;;;13.07;6.28;;;;;;;17.86;100.00;101873.53;5092796;28;20028;-69
2023/08/16 01:52:54;;;;;;;9.73;4.85;;;;;;;17.85;100.00;101871.06;5092684;28;20494;-69
2023/08/16 01:55:20;;;;;;;12.48;6.50;;;;;;;17.86;100.00;101876.22;5092765;28;20063;-69
2023/08/16 01:57:45;;;;;;;10.35;5.93;;;;;;;17.76;100.00;101865.06;5092630;28;20028;-69
2023/08/16 02:00:11;;;;;;;13.30;5.57;;;;;;;17.68;100.00;101868.03;5092600;28;20043;-69
2023/08/16 02:02:37;;;;;;;10.45;5.95;;;;;;;17.55;100.00;101849.25;5074860;28;20036;-69
2023/08/16 02:05:02;;;;;;;8.88;5.05;;;;;;;17.53;100.00;101858.41;5072899;28;20131;-69
2023/08/16 02:07:28;;;;;;;9.60;5.53;;;;;;;17.47;100.00;101861.13;5073260;28;20029;-69
2023/08/16 02:09:53;;;;;;;11.05;4.88;;;;;;;17.49;100.00;101870.66;5055081;28;20067;-69
2023/08/16 02:12:18;;;;;;;9.65;5.25;;;;;;;17.51;100.00;101875.84;5072892;28;20024;-69
2023/08/16 02:14:44;;;;;;;14.43;5.03;;;;;;;17.50;100.00;101875.03;5092115;28;20020;-69
2023/08/16 02:17:09;;;;;;;6.60;4.55;;;;;;;17.53;100.00;101879.97;5092154;28;20040;-69
2023/08/16 02:19:34;;;;;;;13.23;5.30;;;;;;;17.55;100.00;101874.34;5092172;28;20028;-69
2023/08/16 02:22:00;;;;;;;10.90;5.93;;;;;;;17.52;100.00;101870.22;5092264;28;20943;-69
2023/08/16 02:24:25;;;;;;;11.85;5.45;;;;;;;17.52;100.00;101878.31;5092073;28;20507;-69
2023/08/16 02:26:50;;;;;;;9.93;5.38;;;;;;;17.53;100.00;101873.75;5090602;28;20364;-69
2023/08/16 02:29:16;;;;;;;11.43;5.65;;;;;;;17.50;100.00;101874.16;5092038;28;20153;-69
2023/08/16 02:31:41;;;;;;;8.52;5.97;;;;;;;17.53;100.00;101873.75;5073903;28;20047;-69
2023/08/16 02:34:06;;;;;;;10.88;6.45;;;;;;;17.50;100.00;101869.63;5092198;28;20028;-69
2023/08/16 02:36:32;;;;;;;9.45;5.13;;;;;;;17.49;100.00;101864.44;5091979;28;20152;-69
2023/08/16 02:38:57;;;;;;;9.52;5.55;;;;;;;17.51;100.00;101865.06;5091976;28;20387;-69
2023/08/16 02:41:22;;;;;;;11.60;5.40;;;;;;;17.45;100.00;101877.53;5091753;28;20039;-69
2023/08/16 02:43:48;;;;;;;8.30;4.85;;;;;;;17.50;100.00;101880.41;5090378;28;20095;-69
2023/08/16 02:46:13;;;;;;;11.73;5.47;;;;;;;17.49;100.00;101873.34;5091462;28;20040;-69
2023/08/16 02:48:39;;;;;;;12.00;5.80;;;;;;;17.48;100.00;101879.81;5091636;28;20382;-69
2023/08/16 02:51:05;;;;;;;15.00;6.25;;;;;;;17.51;100.00;101878.53;5091704;28;20028;-69
2023/08/16 02:53:30;;;;;;;10.07;5.53;;;;;;;17.51;100.00;101879.34;5091557;28;20430;-69
2023/08/16 02:55:55;;;;;;;12.27;6.05;;;;;;;17.51;100.00;101873.16;5091585;28;20032;-69
2023/08/16 02:58:21;;;;;;;10.20;5.95;;;;;;;17.45;100.00;101864.06;5091147;28;20110;-69
2023/08/16 03:00:50;;;;;;;14.75;5.90;;;;;;;17.36;100.00;101857.25;5089968;28;20387;-69
2023/08/16 03:03:15;;;;;;;12.43;5.85;;;;;;;17.23;100.00;101852.75;5091294;28;20060;-69
2023/08/16 03:05:41;;;;;;;11.23;6.00;;;;;;;17.17;100.00;101850.94;5091424;28;20162;-69
2023/08/16 03:08:06;;;;;;;12.18;5.78;;;;;;;17.11;100.00;101859.06;5091498;28;20032;-69
2023/08/16 03:10:31;;;;;;;12.18;6.80;;;;;;;17.07;100.00;101866.75;5089992;28;20165;-69
2023/08/16 03:12:57;;;;;;;10.48;5.80;;;;;;;17.07;100.00;101866.75;5090097;28;20188;-69
2023/08/16 03:15:23;;;;;;;11.45;6.32;;;;;;;17.06;100.00;101867.81;5091204;28;20028;-69
2023/08/16 03:17:48;;;;;;;14.02;6.72;;;;;;;17.02;100.00;101863.88;5091127;28;20035;-69
2023/08/16 03:20:13;;;;;;;16.90;6.07;;;;;;;17.04;100.00;101869.88;5089976;28;20055;-69
2023/08/16 03:22:39;;;;;;;15.65;6.90;;;;;;;17.01;100.00;101868.44;5091061;28;20035;-69
2023/08/16 03:25:04;;;;;;;9.45;5.35;;;;;;;17.02;100.00;101870.09;5091006;28;20020;-69
2023/08/16 03:27:29;;;;;;;10.38;5.57;;;;;;;17.01;100.00;101875.72;5090758;28;20024;-69
2023/08/16 03:29:55;;;;;;;14.90;6.25;;;;;;;17.00;100.00;101871.34;5091305;28;20028;-69
2023/08/16 03:32:21;;;;;;;12.20;6.90;;;;;;;17.01;100.00;101871.13;5092909;28;20027;-69
2023/08/16 03:34:46;;;;;;;10.35;6.05;;;;;;;17.00;100.00;101877.59;5091339;28;20621;-69
2023/08/16 03:37:11;;;;;;;9.10;5.93;;;;;;;16.96;100.00;101879.03;5089315;28;20063;-69
2023/08/16 03:39:36;;;;;;;12.25;6.03;;;;;;;16.99;100.00;101885.88;5090745;28;20032;-69
2023/08/16 03:42:02;;;;;;;11.43;5.63;;;;;;;16.99;100.00;101883.16;5089446;28;20044;-68
2023/08/16 03:44:27;;;;;;;9.63;5.63;;;;;;;17.00;100.00;101882.13;5090521;28;20069;-69
2023/08/16 03:46:53;;;;;;;10.65;5.32;;;;;;;17.00;100.00;101885.66;5090846;28;20028;-68
2023/08/16 03:49:18;;;;;;;8.30;5.18;;;;;;;16.98;100.00;101874.25;5090507;28;20063;-69
2023/08/16 03:51:43;;;;;;;9.75;5.18;;;;;;;16.99;100.00;101889.38;5089185;28;20489;-69
2023/08/16 03:54:09;;;;;;;14.32;5.75;;;;;;;17.00;100.00;101879.44;5090441;28;20370;-69
2023/08/16 03:56:34;;;;;;;9.57;6.07;;;;;;;16.98;100.00;101884.22;5090316;28;20028;-69
2023/08/16 03:58:59;;;;;;;10.18;5.05;;;;;;;17.07;100.00;101891.84;5090250;28;20201;-69
2023/08/16 04:01:25;;;;;;;11.20;5.78;;;;;;;17.06;100.00;101900.16;5090113;28;20035;-69
2023/08/16 04:03:50;;;;;;;9.40;5.47;;;;;;;17.06;100.00;101898.28;5090378;28;20036;-69
2023/08/16 04:06:19;;;;;;;10.85;5.15;;;;;;;17.05;100.00;101898.47;5090231;28;20031;-69
2023/08/16 04:08:45;;;;;;;9.70;4.93;;;;;;;16.98;100.00;101890.44;5090088;28;20032;-69
2023/08/16 04:11:10;;;;;;;9.43;5.25;;;;;;;16.98;100.00;101900.41;5089343;28;20028;-69
2023/08/16 04:13:36;;;;;;;13.13;5.90;;;;;;;16.98;100.00;101898.53;5089972;28;20108;-69
2023/08/16 04:16:01;;;;;;;8.70;5.28;;;;;;;16.98;100.00;101898.53;5090106;28;20039;-69
2023/08/16 04:18:27;;;;;;;10.00;5.07;;;;;;;16.94;100.00;101902.66;5090140;28;20498;-69
2023/08/16 04:20:52;;;;;;;8.68;5.53;;;;;;;16.92;100.00;101899.34;5090031;28;20023;-69
2023/08/16 04:23:17;;;;;;;8.02;4.60;;;;;;;16.90;100.00;101890.69;5089710;28;20032;-69
2023/08/16 04:25:43;;;;;;;10.65;5.45;;;;;;;16.88;100.00;101897.31;5089764;28;20035;-69
2023/08/16 04:28:08;;;;;;;16.33;6.82;;;;;;;16.86;100.00;101895.66;5089455;28;20442;-69
2023/08/16 04:30:34;;;;;;;12.77;5.07;;;;;;;16.80;100.00;101895.69;5088939;28;21013;-69
2023/08/16 04:32:59;;;;;;;11.50;4.43;;;;;;;16.83;100.00;101908.72;5087373;28;20024;-69
2023/08/16 04:35:24;;;;;;;10.98;5.03;;;;;;;16.89;100.00;101907.88;5088679;28;20140;-69
2023/08/16 04:37:50;;;;;;;6.35;4.60;;;;;;;16.93;100.00;101911.00;5088212;28;20497;-69
2023/08/16 04:40:15;;;;;;;9.05;5.43;;;;;;;16.97;100.00;101910.31;5088682;28;20114;-69
2023/08/16 04:42:41;;;;;;;9.65;4.55;;;;;;;17.04;100.00;101913.84;5088824;28;20024;-69
2023/08/16 04:45:06;;;;;;;8.20;4.40;;;;;;;17.01;100.00;101919.66;5088776;28;20059;-69
2023/08/16 04:47:32;;;;;;;6.90;4.55;;;;;;;16.97;100.00;101922.97;5069804;28;20071;-69
2023/08/16 04:49:58;;;;;;;9.55;4.90;;;;;;;16.96;100.00;101921.34;5089599;28;20036;-69
2023/08/16 04:52:24;;;;;;;11.95;6.00;;;;;;;16.91;100.00;101927.34;5089102;28;20028;-69
2023/08/16 04:54:49;;;;;;;10.15;4.63;;;;;;;16.90;100.00;101919.47;5089383;28;20080;-69
2023/08/16 04:57:15;;;;;;;9.65;5.95;;;;;;;16.90;100.00;101920.31;5087654;28;20032;-69
2023/08/16 04:59:40;;;;;;;8.80;4.63;;;;;;;16.83;100.00;101920.34;5088930;28;20031;-69
2023/08/16 05:02:05;;;;;;;9.20;5.28;;;;;;;16.82;100.00;101920.53;5087882;28;20068;-69
2023/08/16 05:04:31;;;;;;;9.23;5.10;;;;;;;16.79;100.00;101921.81;5069184;28;20040;-69
2023/08/16 05:06:56;;;;;;;7.53;5.00;;;;;;;16.77;100.00;101920.34;5089035;28;20043;-69
2023/08/16 05:09:22;;;;;;;8.50;5.03;;;;;;;16.78;100.00;101930.09;5089226;28;20019;-69
2023/08/16 05:11:47;;;;;;;11.85;5.30;;;;;;;16.71;100.00;101919.28;5089240;28;20032;-69
2023/08/16 05:14:13;;;;;;;8.80;4.97;;;;;;;16.73;100.00;101921.78;5088843;28;20036;-69
2023/08/16 05:16:38;;;;;;;11.65;5.45;;;;;;;16.73;100.00;101933.38;5088952;28;20043;-69
2023/08/16 05:19:03;;;;;;;6.80;3.95;;;;;;;16.75;100.00;101922.41;5089233;28;20052;-69
2023/08/16 05:21:29;;;;;;;7.10;4.40;;;;;;;16.72;100.00;101923.66;5089191;28;20036;-69
2023/08/16 05:23:54;;;;;;;9.60;4.80;;;;;;;16.70;100.00;101928.41;5088868;28;20020;-69
2023/08/16 05:26:20;;;;;;;10.38;5.13;;;;;;;16.72;100.00;101929.03;5089092;28;20052;-69
2023/08/16 05:28:45;;;;;;;8.23;5.35;;;;;;;16.73;100.00;101921.78;5088913;28;20028;-69
2023/08/16 05:31:12;;;;;;;11.60;4.72;;;;;;;16.76;100.00;101930.25;5088860;28;20032;-69
2023/08/16 05:33:38;;;;;;;7.55;4.20;;;;;;;16.78;100.00;101930.09;5088762;28;20061;-69
2023/08/16 05:36:04;;;;;;;10.25;5.13;;;;;;;16.79;100.00;101939.81;5088576;28;20036;-69
2023/08/16 05:38:30;;;;;;;8.63;4.63;;;;;;;16.81;100.00;101943.13;5087415;28;20146;-68
2023/08/16 05:40:57;;;;;;;9.32;4.50;;;;;;;16.80;100.00;101947.69;5088810;28;20107;-69
2023/08/16 05:43:22;;;;;;;13.07;5.40;;;;;;;16.84;100.00;101957.00;5069702;28;20510;-69
2023/08/16 05:45:47;;;;;;;10.07;4.70;;;;;;;16.83;100.00;101954.53;5069368;28;20048;-69
2023/08/16 05:48:13;;;;;;;8.43;3.97;;;;;;;16.84;100.00;101962.38;5069474;28;20111;-69
2023/08/16 05:50:39;;;;;;;6.35;3.65;;;;;;;16.89;100.00;101952.84;5069357;28;20498;-69
2023/08/16 05:53:05;;;;;;;9.63;4.95;;;;;;;16.90;100.00;101952.66;5088901;28;20028;-69
2023/08/16 05:55:30;;;;;;;9.95;4.78;;;;;;;16.89;100.00;101947.47;5088784;28;20054;-69
2023/08/16 05:57:55;;;;;;;8.18;4.80;;;;;;;16.89;100.00;101944.78;5088671;28;20036;-69
2023/08/16 06:00:21;;;;;;;10.20;4.38;;;;;;;16.90;100.00;101952.66;5088609;28;20038;-69
2023/08/16 06:02:47;;;;;;;10.52;5.03;;;;;;;16.93;100.00;101952.22;5088589;28;20020;-69
2023/08/16 06:05:13;;;;;;;6.10;3.83;;;;;;;16.93;100.00;101952.22;5088662;28;20502;-69
2023/08/16 06:07:39;;;;;;;7.80;4.40;;;;;;;16.95;100.00;101950.16;5088830;28;20028;-69
2023/08/16 06:10:05;;;;;;;6.25;4.07;;;;;;;16.99;100.00;101951.38;5088802;28;20039;-69
2023/08/16 06:12:31;;;;;;;12.43;4.50;;;;;;;17.06;100.00;101959.44;5088418;28;20055;-69
2023/08/16 06:14:56;;;;;;;7.53;3.75;;;;;;;17.24;100.00;101961.47;5088531;28;20660;-69
2023/08/16 06:17:21;;;;;;;9.55;4.18;;;;;;;17.31;100.00;101967.63;5088399;28;20056;-69
2023/08/16 06:19:47;;;;;;;9.80;4.10;;;;;;;17.35;100.00;101971.56;5087006;28;20024;-69
2023/08/16 06:22:12;;;;;;;8.13;4.55;;;;;;;17.39;100.00;101974.66;5088436;28;20444;-69
2023/08/16 06:24:38;;;;;;;9.90;4.03;;;;;;;17.36;100.00;101975.91;5087050;28;20484;-73
2023/08/16 06:27:03;;;;;;;7.97;3.85;;;;;;;17.42;100.00;101979.63;5088189;28;20034;-69
2023/08/16 06:29:29;;;;;;;6.50;4.00;;;;;;;17.39;100.00;101969.25;5088536;28;20391;-69
2023/08/16 06:31:55;;;;;;;7.32;4.15;;;;;;;17.46;100.00;101970.88;5088219;28;20063;-69
2023/08/16 06:34:21;;;;;;;8.70;4.35;;;;;;;17.45;100.00;101958.47;5090006;28;20028;-69
2023/08/16 06:36:46;;;;;;;6.80;4.00;;;;;;;17.48;100.00;101966.13;5090576;28;20036;-71
2023/08/16 06:39:12;;;;;;;6.25;4.38;;;;;;;17.51;100.00;101964.84;5091996;28;20103;-69
2023/08/16 06:41:38;;;;;;;8.18;3.63;;;;;;;17.54;100.00;101959.03;5091885;28;20039;-69
2023/08/16 06:44:04;;;;;;;6.65;3.88;;;;;;;17.62;100.00;101968.75;5091728;28;20074;-66
2023/08/16 06:46:29;;;;;;;5.90;4.13;;;;;;;17.68;100.00;101968.72;5091588;28;20052;-69
2023/08/16 06:48:54;;;;;;;7.88;4.07;;;;;;;17.77;100.00;101971.16;5091621;28;20032;-69
2023/08/16 06:51:20;;;;;;;6.80;3.92;;;;;;;17.78;100.00;101959.31;5081576;28;20032;-68
2023/08/16 06:53:45;;;;;;;8.77;4.95;;;;;;;17.80;100.00;101960.78;5072342;28;20545;-67
2023/08/16 06:56:11;;;;;;;7.45;3.67;;;;;;;17.82;100.00;101953.28;5072040;28;20434;-67
2023/08/16 06:58:37;;;;;;;13.25;4.93;;;;;;;17.86;100.00;101959.88;5089432;28;20386;-67
2023/08/16 07:01:02;;;;;;;15.20;5.47;;;;;;;17.86;100.00;101975.25;5091326;28;20032;-67
2023/08/16 07:03:28;;;;;;;8.38;3.80;;;;;;;17.81;100.00;101975.09;5074677;28;20029;-67
2023/08/16 07:05:54;;;;;;;10.38;5.30;;;;;;;17.78;100.00;101976.31;5071674;28;20120;-67
2023/08/16 07:08:20;;;;;;;6.05;3.25;;;;;;;17.80;100.00;101979.66;5071429;28;20039;-67
2023/08/16 07:10:47;;;;;;;5.70;3.80;;;;;;;17.84;100.00;101980.03;5089751;28;20463;-67
2023/08/16 07:13:12;;;;;;;6.80;3.78;;;;;;;17.83;100.00;101976.53;5075521;28;20052;-67
2023/08/16 07:15:37;;;;;;;6.10;3.63;;;;;;;17.82;100.00;101974.06;5075610;28;20032;-67
2023/08/16 07:18:03;;;;;;;10.57;3.85;;;;;;;17.88;100.00;101979.41;5083043;28;20098;-68
2023/08/16 07:20:29;;;;;;;9.48;4.13;;;;;;;18.02;100.00;101982.00;5075059;28;20033;-66
2023/08/16 07:22:55;;;;;;;7.13;3.85;;;;;;;18.15;100.00;101980.03;5073982;28;20062;-66
2023/08/16 07:25:20;;;;;;;9.27;4.03;;;;;;;18.23;100.00;101983.50;5074567;28;20136;-67
2023/08/16 07:27:45;;;;;;;4.88;3.42;;;;;;;18.18;100.00;101973.34;5075394;28;20017;-66
2023/08/16 07:30:12;;;;;;;12.77;4.45;;;;;;;18.20;100.00;101975.84;5073509;28;20029;-69
2023/08/16 07:32:37;;;;;;;5.50;3.55;;;;;;;18.22;100.00;101987.28;5073073;28;20029;-67
2023/08/16 07:35:03;;;;;;;8.00;4.38;;;;;;;18.18;100.00;101994.97;5074963;28;20042;-67
2023/08/16 07:37:31;;;;;;;11.70;3.40;;;;;;;18.17;100.00;101994.16;5074398;28;20024;-67
2023/08/16 07:39:58;;;;;;;6.57;2.83;;;;;;;18.25;100.00;101986.81;5073408;28;20032;-68
2023/08/16 07:42:24;;;;;;;4.35;3.22;;;;;;;18.33;100.00;101990.06;5075573;28;20482;-68
2023/08/16 07:44:49;;;;;;;5.88;3.45;;;;;;;18.44;100.00;101996.63;5072810;28;20060;-67
2023/08/16 07:47:15;;;;;;;6.10;3.22;;;;;;;18.41;100.00;101988.97;5074290;28;20111;-70
2023/08/16 07:49:41;;;;;;;7.93;3.50;;;;;;;18.49;100.00;101995.97;5073414;28;20033;-71
2023/08/16 07:52:07;;;;;;;8.05;3.92;;;;;;;18.49;100.00;101994.09;5073867;28;20029;-70
2023/08/16 07:54:32;;;;;;;4.70;3.00;;;;;;;18.49;100.00;101987.88;5072612;28;20027;-70
2023/08/16 07:56:57;;;;;;;9.40;3.00;;;;;;;18.44;100.00;101982.28;5073785;28;20025;-69
2023/08/16 07:59:23;;;;;;;9.18;3.75;;;;;;;18.54;100.00;101996.13;5073582;28;20095;-69
2023/08/16 08:01:49;;;;;;;9.50;3.13;;;;;;;18.67;100.00;102011.41;5073841;28;20033;-69
2023/08/16 08:04:14;;;;;;;8.23;2.67;;;;;;;18.80;100.00;102009.41;5074637;28;20071;-70
2023/08/16 08:06:40;;;;;;;5.30;3.67;;;;;;;18.94;99.38;102009.28;5073442;28;20474;-70
2023/08/16 08:09:05;;;;;;;5.25;2.55;;;;;;;19.17;98.90;102008.63;5073189;28;20046;-70
2023/08/16 08:11:31;;;;;;;7.80;3.30;;;;;;;19.48;100.00;102007.63;5073641;28;20028;-69
2023/08/16 08:13:59;;;;;;;7.70;2.97;;;;;;;20.16;95.58;102011.09;5073503;28;20380;-70
2023/08/16 08:16:25;;;;;;;7.30;3.05;;;;;;;21.21;91.03;102013.81;5074085;28;20036;-70
2023/08/16 08:18:50;;;;;;;7.55;3.40;;;;;;;22.44;83.90;102010.69;5073753;28;20368;-69
2023/08/16 08:21:16;;;;;;;8.15;4.35;;;;;;;22.94;80.81;102003.53;5072010;28;20067;-69
2023/08/16 08:23:41;;;;;;;3.58;2.88;;;;;;;22.56;80.90;101998.88;5072837;28;20414;-69
2023/08/16 08:26:07;;;;;;;4.68;2.78;;;;;;;22.12;82.58;102004.97;5073308;28;20120;-68
2023/08/16 08:28:32;;;;;;;6.25;3.00;;;;;;;22.26;82.13;102013.66;5071075;28;20020;-70
2023/08/16 08:31:02;;;;;;;8.93;3.50;;;;;;;22.81;81.08;102012.06;5073105;28;20040;-67
2023/08/16 08:33:27;;;;;;;4.32;2.92;;;;;;;23.51;78.16;102016.78;5073419;28;20028;-67
2023/08/16 08:35:53;;;;;;;3.67;3.10;;;;;;;23.67;75.15;102019.69;5072857;28;20055;-67
2023/08/16 08:38:18;;;;;;;6.43;3.25;;;;;;;23.76;74.01;102010.00;5071696;28;20047;-66
2023/08/16 08:40:43;;;;;;;7.57;3.53;;;;;;;24.18;72.43;102020.19;5074177;28;20153;-67
2023/08/16 08:43:10;;;;;;;7.50;3.20;;;;;;;24.80;71.46;102025.03;5073533;28;20027;-67
2023/08/16 08:45:36;;;;;;;8.48;3.97;;;;;;;24.91;69.42;102017.75;5072647;28;20067;-67
2023/08/16 08:48:04;;;;;;;6.90;3.22;;;;;;;24.97;68.51;102022.16;5072612;28;20036;-67
2023/08/16 08:50:29;;;;;;;10.00;3.20;;;;;;;24.66;68.89;102015.69;5072668;28;20029;-67
2023/08/16 08:52:56;;;;;;;5.72;3.13;;;;;;;24.09;72.12;102011.69;5073335;28;20490;-70
2023/08/16 08:55:25;;;;;;;5.72;3.05;;;;;;;23.34;74.90;102025.06;5073330;28;20035;-69
2023/08/16 08:57:55;;;;;;;6.43;3.67;;;;;;;22.39;77.58;102029.63;5070577;28;20478;-69
2023/08/16 09:00:21;;;;;;;4.18;2.83;;;;;;;21.97;81.23;102027.25;5073235;28;20107;-70
2023/08/16 09:02:52;;;;;;;6.22;3.60;;;;;;;21.69;82.22;102025.38;5072677;28;20036;-69
2023/08/16 09:05:21;;;;;;;11.27;3.55;;;;;;;21.59;84.28;102027.91;5072743;28;20028;-70
2023/08/16 09:07:48;;;;;;;7.60;4.00;;;;;;;21.47;84.72;102029.84;5072321;28;20060;-69
2023/08/16 09:10:13;;;;;;;6.43;3.60;;;;;;;21.43;87.43;102021.34;5072777;28;20063;-70
2023/08/16 09:12:39;;;;;;;5.90;3.55;;;;;;;21.44;87.24;102029.25;5071834;28;20028;-69
2023/08/16 09:15:07;;;;;;;5.30;3.20;;;;;;;21.57;88.22;102032.75;5073275;28;20020;-69
2023/08/16 09:17:33;;;;;;;11.15;3.50;;;;;;;21.37;87.19;102022.28;5072503;28;20112;-69
2023/08/16 09:20:08;;;;;;;9.15;3.42;;;;;;;21.37;87.66;102019.56;5072159;28;20108;-69
2023/08/16 09:22:34;;;;;;;11.80;4.00;;;;;;;21.29;88.66;102020.75;5072699;28;20028;-69
2023/08/16 09:25:02;;;;;;;6.90;3.90;;;;;;;21.18;89.22;102021.63;5072953;28;20023;-69
2023/08/16 09:27:28;;;;;;;11.88;4.82;;;;;;;21.15;91.99;102022.09;5072433;28;20107;-69
2023/08/16 09:29:57;;;;;;;7.68;3.42;;;;;;;21.13;90.63;102021.50;5074570;28;20542;-69
2023/08/16 09:32:27;;;;;;;7.53;3.83;;;;;;;21.18;89.14;102018.91;5072731;28;20040;-68
2023/08/16 09:34:53;;;;;;;8.02;3.20;;;;;;;21.27;89.36;102022.06;5072171;28;20482;-70
2023/08/16 09:37:20;;;;;;;13.60;4.30;;;;;;;21.31;88.24;102028.66;5072933;28;20020;-70
2023/08/16 09:39:57;;;;;;;8.80;3.28;;;;;;;21.40;89.46;102019.09;5072337;28;20455;-70
2023/08/16 09:42:33;;;;;;;7.90;3.63;;;;;;;21.34;88.31;102023.59;5072022;28;20147;-70
2023/08/16 09:44:59;;;;;;;6.68;3.58;;;;;;;21.25;88.16;102030.47;5072435;28;20109;-70
2023/08/16 09:47:25;;;;;;;7.95;3.60;;;;;;;21.20;86.30;102017.59;5073045;28;20024;-71
2023/08/16 09:49:51;;;;;;;8.27;4.15;;;;;;;21.20;87.49;102023.03;5071387;28;20097;-70
2023/08/16 09:52:17;;;;;;;6.53;3.90;;;;;;;21.14;88.96;102028.56;5072234;28;20063;-71
2023/08/16 09:54:46;;;;;;;8.15;4.22;;;;;;;21.08;89.17;102024.94;5071329;28;20474;-70
2023/08/16 09:57:12;;;;;;;8.20;5.22;;;;;;;21.12;92.20;102017.97;5071220;28;20021;-70
2023/08/16 09:59:38;;;;;;;6.05;3.83;;;;;;;21.24;93.02;102024.19;5071984;28;20024;-68
2023/08/16 10:02:04;;;;;;;7.93;4.15;;;;;;;21.17;88.20;102034.38;5070566;28;20110;-67
2023/08/16 10:04:31;;;;;;;12.00;4.43;;;;;;;21.16;92.32;102021.03;5072346;28;20043;-67
2023/08/16 10:06:56;;;;;;;10.23;5.25;;;;;;;21.20;89.99;102030.34;5070500;28;20028;-69
2023/08/16 10:09:22;;;;;;;11.50;4.53;;;;;;;21.16;90.37;102021.03;5072810;28;20043;-70
2023/08/16 10:11:49;;;;;;;6.05;3.40;;;;;;;21.16;91.80;102021.84;5075725;28;20082;-70
2023/08/16 10:14:14;;;;;;;9.60;4.10;;;;;;;21.27;92.07;102020.16;5075905;28;20043;-70
2023/08/16 10:16:40;;;;;;;10.50;4.32;;;;;;;21.35;93.18;102016.25;5075673;28;20672;-70
2023/08/16 10:19:11;;;;;;;7.15;3.92;;;;;;;21.40;92.31;102013.69;5076025;28;21206;-70
2023/08/16 10:21:39;;;;;;;7.35;3.58;;;;;;;21.40;90.00;102019.94;5075420;28;20028;-70
2023/08/16 10:24:09;;;;;;;7.97;4.45;;;;;;;21.43;88.73;102015.91;5075944;28;20019;-70
2023/08/16 10:26:35;;;;;;;7.18;3.78;;;;;;;21.42;91.52;102020.50;5075525;28;20450;-70
2023/08/16 10:29:07;;;;;;;8.10;4.35;;;;;;;21.47;90.51;102016.28;5075161;28;20510;-70
2023/08/16 10:31:37;;;;;;;8.18;4.40;;;;;;;21.42;89.32;102011.56;5075856;28;20058;-69
2023/08/16 10:34:07;;;;;;;10.13;3.67;;;;;;;21.48;91.00;102015.19;5075757;28;20017;-70
2023/08/16 10:36:33;;;;;;;5.90;3.70;;;;;;;21.42;90.75;102006.13;5074849;28;20471;-69
2023/08/16 10:38:59;;;;;;;8.57;4.47;;;;;;;21.50;90.23;102015.78;5075628;28;20023;-68
2023/08/16 10:41:25;;;;;;;12.50;4.07;;;;;;;21.53;89.48;102005.25;5075902;28;20027;-69
2023/08/16 10:43:52;;;;;;;11.50;4.80;;;;;;;21.53;92.43;102018.00;5076105;28;20036;-69
2023/08/16 10:46:28;;;;;;;7.18;3.63;;;;;;;21.66;91.98;102004.97;5075562;28;20040;-69
2023/08/16 10:49:06;;;;;;;6.85;3.92;;;;;;;21.76;91.45;102004.34;5074687;28;20479;-69
2023/08/16 10:51:45;;;;;;;12.40;5.22;;;;;;;21.94;93.95;102003.31;5075616;28;20115;-69
2023/08/16 10:54:10;;;;;;;10.75;4.97;;;;;;;22.30;88.24;102009.38;5075989;28;20025;-68
2023/08/16 10:56:47;;;;;;;8.40;4.25;;;;;;;22.43;86.68;102005.53;5075005;28;20108;-69
2023/08/16 10:59:13;;;;;;;8.20;3.15;;;;;;;22.43;87.76;102009.06;5075064;28;20106;-69
2023/08/16 11:02:09;;;;;;;10.73;4.57;;;;;;;22.51;86.91;102003.19;5075463;28;20107;-68
2023/08/16 11:04:36;;;;;;;8.95;5.18;;;;;;;22.27;86.80;102005.28;5074432;28;20119;-69
2023/08/16 11:07:06;;;;;;;6.80;4.03;;;;;;;22.16;86.30;102005.28;5074637;28;20028;-69
2023/08/16 11:09:32;;;;;;;9.80;4.60;;;;;;;22.12;87.82;102013.13;5075837;28;20024;-68
2023/08/16 11:12:01;;;;;;;7.93;4.18;;;;;;;22.20;85.43;102007.31;5074841;28;20037;-68
2023/08/16 11:14:27;;;;;;;10.40;3.40;;;;;;;22.26;86.66;102000.88;5074079;28;20063;-69